YMHB

Details ICAO YMHB (HBA)
Name Hobart
Region Australia
Timezone Australia/Hobart (UTC+10.0)
Plans Departing 213
Arriving 222
Stats Elevation 12 ft / 4 m (AMSL)
Location -42.836167° 147.511798°
Runways 1
Magnetic Variation 15.117° E
Sunrise 2018-06-24 21:42:56 UTC / 2018-06-25 07:42:56 Local
Sunset 2018-06-25 06:44:26 UTC / 2018-06-25 16:44:26 Local
Advertisement - Login to hide

Runways

ID Width Length Bearing (true) Bearing (mag) Surface Threshold Offset Overrun Length
12 148 ft / 45 m 7,379 ft / 2,249 m 135.11° 119.99° Asphalt 0 ft / 0 m 0 ft / 0 m
30 148 ft / 45 m 7,379 ft / 2,249 m 315.09° 299.97° Asphalt 0 ft / 0 m 0 ft / 0 m

Approach Navaids

Runway Type Ident Frequency Range Bearing (true) Bearing (mag) Slope Elevation
12 Localiser IHB 109.90 MHz 18 nm / 33 km 135.13° 120.02° - 12 ft / 4 m (AMSL)
12 Glidescope IHB 109.90 MHz 10 nm / 19 km 135.10° 119.98° 3.00° 12 ft / 4 m (AMSL)

Map

Weather


0- 5 10 15 20 25 30 35+ Temperature / ° C

Clouds and Precipitation
Forecast for 2018-06-25 12:00 UTC. Updated 36 minutes ago

Ground ~20,000 ft ~40,000 ft Winds

METAR

YMHB 251000Z 32005KT 9999 FEW045 08/06 Q1029

TAF

TAF YMHB 250505Z 2506/2606 32008KT 9999 SCT035 FM251500 33008KT 9999 FEW045

Frequencies

Recorded 128.44 MHz YMHB ATIS
Tower 118.10 MHz HOBART TWR
Unicom 118.10 MHz HOBART MULT
Warning: Do not use this data for real-world aviation or navigation. No guarantee of current accuracy is given.